createdAt,value
2023-03-31T00:00:25.488Z,4.25
2023-03-31T00:02:54.792Z,4.50
2023-03-31T00:05:24.784Z,4.22
2023-03-31T00:08:01.104Z,4.38
2023-03-31T00:10:33.714Z,4.18
2023-03-31T00:13:02.199Z,4.18
2023-03-31T00:15:29.398Z,4.15
2023-03-31T00:18:00.577Z,4.43
2023-03-31T00:20:28.379Z,4.72
2023-03-31T00:22:57.842Z,4.38
2023-03-31T00:25:25.512Z,4.53
2023-03-31T00:27:53.052Z,4.30
2023-03-31T00:30:20.535Z,4.18
2023-03-31T00:32:47.856Z,3.90
2023-03-31T00:35:15.175Z,3.95
2023-03-31T00:37:43.402Z,3.75
2023-03-31T00:40:12.574Z,4.18
2023-03-31T00:42:43.850Z,3.67
2023-03-31T00:45:14.047Z,4.10
2023-03-31T00:50:19.207Z,3.42
2023-03-31T00:52:48.970Z,3.72
2023-03-31T00:55:18.431Z,3.45
2023-03-31T00:57:46.846Z,3.92
2023-03-31T01:00:20.820Z,3.72
2023-03-31T01:02:53.237Z,3.28
2023-03-31T01:05:24.020Z,3.80
2023-03-31T01:07:54.014Z,3.13
2023-03-31T01:10:21.945Z,3.47
2023-03-31T01:12:52.817Z,2.75
2023-03-31T01:15:20.406Z,3.33
2023-03-31T01:17:50.478Z,2.80
2023-03-31T01:20:27.240Z,3.25
2023-03-31T01:23:14.770Z,2.78
2023-03-31T01:26:21.941Z,3.08
2023-03-31T01:29:02.092Z,2.65
2023-03-31T01:31:56.260Z,2.70
2023-03-31T01:34:45.793Z,2.88
2023-03-31T01:37:51.869Z,3.08
2023-03-31T01:40:35.680Z,2.80
2023-03-31T01:43:09.585Z,2.65
2023-03-31T01:45:57.775Z,2.45
2023-03-31T01:49:02.639Z,2.65
2023-03-31T01:51:34.248Z,3.13
2023-03-31T01:54:06.198Z,2.80
2023-03-31T01:56:47.686Z,2.75
2023-03-31T01:59:18.678Z,3.03
2023-03-31T02:02:13.862Z,3.00
2023-03-31T02:05:01.686Z,3.40
2023-03-31T02:07:39.549Z,3.63
2023-03-31T02:10:10.285Z,3.15
2023-03-31T02:12:40.175Z,3.38
2023-03-31T02:15:11.099Z,2.88
2023-03-31T02:17:40.289Z,3.22
2023-03-31T02:20:15.378Z,2.75
2023-03-31T02:22:46.014Z,3.83
2023-03-31T02:25:17.610Z,3.50
2023-03-31T02:27:50.180Z,2.70
2023-03-31T02:30:17.419Z,3.20
2023-03-31T02:32:46.764Z,3.65
2023-03-31T02:37:46.926Z,3.40
2023-03-31T02:40:20.775Z,3.10
2023-03-31T02:42:49.616Z,4.07
2023-03-31T02:45:39.960Z,3.47
2023-03-31T02:48:24.349Z,3.70
2023-03-31T02:51:01.862Z,3.25
2023-03-31T02:53:54.216Z,3.35
2023-03-31T02:56:48.342Z,2.42
2023-03-31T02:59:24.579Z,3.17
2023-03-31T03:01:57.886Z,3.95
2023-03-31T03:04:34.175Z,4.03
2023-03-31T03:07:39.683Z,3.58
2023-03-31T03:10:10.427Z,2.75
2023-03-31T03:12:40.635Z,3.45
2023-03-31T03:15:10.407Z,3.33
2023-03-31T03:17:41.490Z,3.90
2023-03-31T03:20:09.959Z,3.53
2023-03-31T03:22:38.844Z,4.10
2023-03-31T03:25:11.662Z,4.97
2023-03-31T03:27:39.629Z,4.40
2023-03-31T03:30:09.423Z,4.85
2023-03-31T03:32:37.992Z,4.57
2023-03-31T03:35:06.687Z,3.90
2023-03-31T03:37:35.272Z,4.85
2023-03-31T03:40:03.899Z,4.10
2023-03-31T03:42:31.191Z,4.07
2023-03-31T03:44:58.518Z,5.00
2023-03-31T03:47:25.962Z,3.85
2023-03-31T03:49:53.250Z,3.90
2023-03-31T03:52:21.413Z,3.92
2023-03-31T03:54:48.662Z,4.55
2023-03-31T03:57:16.721Z,4.50
2023-03-31T03:59:45.565Z,4.75
2023-03-31T04:02:12.939Z,4.63
2023-03-31T04:04:40.325Z,4.75
2023-03-31T04:07:07.642Z,4.47
2023-03-31T04:09:34.962Z,5.25
2023-03-31T04:12:02.330Z,4.78
2023-03-31T04:14:29.668Z,4.38
2023-03-31T04:16:58.602Z,4.68
2023-03-31T04:19:27.551Z,5.10
2023-03-31T04:22:03.144Z,5.38
2023-03-31T04:24:33.030Z,4.70
2023-03-31T04:27:01.197Z,6.03
2023-03-31T04:29:28.544Z,4.72
2023-03-31T04:31:59.282Z,5.15
2023-03-31T04:34:35.044Z,6.80
2023-03-31T04:37:03.558Z,4.97
2023-03-31T04:39:31.090Z,6.90
2023-03-31T04:41:59.771Z,6.40
2023-03-31T04:44:35.289Z,6.53
2023-03-31T04:47:03.390Z,5.70
2023-03-31T04:49:34.326Z,6.80
2023-03-31T04:52:01.740Z,5.85
2023-03-31T04:54:29.009Z,6.72
2023-03-31T04:56:56.318Z,6.68
2023-03-31T04:59:23.614Z,6.78
2023-03-31T05:01:50.902Z,6.53
2023-03-31T05:04:18.240Z,6.63
2023-03-31T05:06:45.585Z,6.88
2023-03-31T05:09:12.869Z,6.70
2023-03-31T05:11:41.051Z,6.43
2023-03-31T05:14:11.391Z,6.20
2023-03-31T05:16:38.769Z,6.63
2023-03-31T05:19:06.235Z,7.50
2023-03-31T05:21:33.532Z,6.75
2023-03-31T05:24:00.794Z,6.53
2023-03-31T05:26:28.049Z,7.20
2023-03-31T05:28:55.386Z,7.22
2023-03-31T05:31:23.244Z,6.75
2023-03-31T05:33:50.716Z,7.55
2023-03-31T05:36:18.455Z,6.80
2023-03-31T05:38:47.722Z,7.82
2023-03-31T05:41:17.070Z,6.03
2023-03-31T05:43:44.527Z,7.38
2023-03-31T05:46:12.072Z,7.40
2023-03-31T05:48:39.501Z,7.15
2023-03-31T05:51:06.794Z,6.28
2023-03-31T05:53:34.171Z,7.28
2023-03-31T05:56:04.361Z,7.10
2023-03-31T05:58:31.777Z,6.97
2023-03-31T06:01:08.349Z,7.47
2023-03-31T06:03:37.725Z,6.80
2023-03-31T06:06:06.313Z,6.30
2023-03-31T06:08:34.437Z,6.55
2023-03-31T06:11:08.281Z,7.60
2023-03-31T06:13:36.940Z,7.70
2023-03-31T06:16:04.311Z,7.18
2023-03-31T06:18:33.614Z,6.95
2023-03-31T06:21:01.267Z,7.17
2023-03-31T06:23:28.777Z,8.20
2023-03-31T06:26:04.630Z,7.55
2023-03-31T06:28:31.959Z,8.20
2023-03-31T06:31:05.546Z,7.00
2023-03-31T06:33:34.024Z,7.53
2023-03-31T06:36:04.303Z,6.55
2023-03-31T06:38:32.604Z,7.22
2023-03-31T06:41:00.587Z,8.27
2023-03-31T06:43:27.895Z,8.27
2023-03-31T06:45:56.235Z,7.00
2023-03-31T06:48:25.322Z,7.10
2023-03-31T06:50:58.924Z,6.72
2023-03-31T06:53:26.472Z,6.68
2023-03-31T06:55:53.850Z,7.35
2023-03-31T06:58:21.466Z,6.18
2023-03-31T07:00:49.680Z,6.20
2023-03-31T07:03:19.055Z,6.85
2023-03-31T07:05:51.028Z,6.30
2023-03-31T07:08:18.975Z,7.50
2023-03-31T07:10:48.765Z,7.03
2023-03-31T07:13:16.941Z,6.10
2023-03-31T07:15:44.924Z,7.20
2023-03-31T07:18:12.755Z,6.70
2023-03-31T07:20:39.935Z,6.78
2023-03-31T07:23:08.620Z,7.95
2023-03-31T07:25:36.465Z,6.07
2023-03-31T07:28:05.166Z,5.97
2023-03-31T07:30:33.165Z,5.65
2023-03-31T07:33:01.811Z,5.68
2023-03-31T07:35:31.391Z,5.60
2023-03-31T07:37:59.087Z,5.00
2023-03-31T07:40:28.519Z,6.03
2023-03-31T07:42:55.820Z,5.72
2023-03-31T07:45:25.317Z,6.10
2023-03-31T07:47:53.010Z,5.40
2023-03-31T07:50:21.351Z,6.97
2023-03-31T07:52:51.955Z,6.07
2023-03-31T07:55:20.160Z,7.25
2023-03-31T07:57:47.722Z,6.82
2023-03-31T08:00:16.260Z,5.63
2023-03-31T08:02:44.042Z,6.38
2023-03-31T08:05:13.167Z,5.15
2023-03-31T08:07:42.237Z,5.65
2023-03-31T08:10:12.730Z,6.05
2023-03-31T08:12:39.976Z,5.32
2023-03-31T08:15:08.117Z,6.05
2023-03-31T08:17:35.757Z,6.10
2023-03-31T08:20:07.954Z,5.97
2023-03-31T08:22:37.012Z,6.22
2023-03-31T08:25:05.894Z,6.25
2023-03-31T08:27:34.678Z,5.82
2023-03-31T08:30:04.546Z,6.25
2023-03-31T08:32:32.994Z,5.65
2023-03-31T08:35:00.729Z,6.53
2023-03-31T08:37:28.413Z,6.07
2023-03-31T08:39:56.092Z,7.13
2023-03-31T08:42:56.302Z,5.47
2023-03-31T08:50:38.253Z,6.50
2023-03-31T08:53:13.964Z,6.15
2023-03-31T08:55:47.650Z,5.90
2023-03-31T08:58:28.128Z,6.13
2023-03-31T09:00:58.125Z,5.95
2023-03-31T09:03:31.831Z,6.13
2023-03-31T09:06:07.283Z,5.50
2023-03-31T09:08:37.339Z,5.28
2023-03-31T09:11:14.917Z,7.65
2023-03-31T09:13:50.872Z,5.72
2023-03-31T09:16:22.755Z,5.72
2023-03-31T09:18:50.916Z,5.00
2023-03-31T09:21:50.076Z,5.45
2023-03-31T09:24:24.222Z,4.88
2023-03-31T09:27:01.453Z,5.30
2023-03-31T09:29:34.708Z,5.30
2023-03-31T09:32:07.456Z,4.85
2023-03-31T09:34:34.928Z,5.95
2023-03-31T09:37:02.143Z,6.03
2023-03-31T09:39:29.372Z,5.20
2023-03-31T09:41:56.681Z,5.40
2023-03-31T09:44:42.373Z,5.10
2023-03-31T09:47:25.756Z,4.72
2023-03-31T09:49:54.045Z,5.95
2023-03-31T09:52:27.996Z,5.57
2023-03-31T09:54:56.937Z,4.97
2023-03-31T09:57:31.995Z,4.53
2023-03-31T10:00:16.605Z,5.68
2023-03-31T10:02:49.374Z,4.40
2023-03-31T10:05:30.556Z,4.78
2023-03-31T10:08:12.924Z,4.93
2023-03-31T10:10:45.491Z,5.28
2023-03-31T10:13:16.985Z,4.53
2023-03-31T10:15:44.808Z,4.85
2023-03-31T10:18:17.176Z,3.92
2023-03-31T10:20:50.620Z,4.20
2023-03-31T10:23:29.575Z,3.83
2023-03-31T10:25:57.101Z,3.95
2023-03-31T10:28:24.525Z,4.28
2023-03-31T10:31:04.191Z,4.03
2023-03-31T10:33:34.730Z,3.05
2023-03-31T10:36:09.278Z,4.00
2023-03-31T10:38:45.195Z,3.80
2023-03-31T10:41:12.807Z,3.50
2023-03-31T10:43:48.689Z,3.75
2023-03-31T10:46:15.979Z,4.07
2023-03-31T10:48:45.067Z,4.10
2023-03-31T10:51:28.698Z,3.28
2023-03-31T10:54:00.992Z,3.80
2023-03-31T10:56:43.811Z,4.30
2023-03-31T10:59:33.017Z,3.60
2023-03-31T11:02:23.384Z,4.32
2023-03-31T11:04:53.670Z,4.22
2023-03-31T11:09:57.776Z,3.40
2023-03-31T11:12:31.229Z,4.97
2023-03-31T11:15:31.443Z,3.22
2023-03-31T11:20:53.766Z,3.50
2023-03-31T11:23:40.009Z,4.40
2023-03-31T11:26:38.348Z,4.43
2023-03-31T11:29:23.138Z,3.58
2023-03-31T11:31:53.267Z,4.10
2023-03-31T11:37:52.966Z,3.42
2023-03-31T11:40:51.353Z,4.13
2023-03-31T11:43:33.540Z,4.00
2023-03-31T11:46:05.130Z,4.30
2023-03-31T11:48:32.478Z,4.10
2023-03-31T11:51:02.008Z,4.50
2023-03-31T11:53:34.319Z,3.55
2023-03-31T11:56:02.641Z,4.50
2023-03-31T11:58:35.926Z,2.78
2023-03-31T12:01:17.042Z,2.92
2023-03-31T12:03:54.629Z,3.33
2023-03-31T12:06:24.478Z,3.17
2023-03-31T12:09:05.713Z,2.80
2023-03-31T12:11:43.404Z,2.95
2023-03-31T12:14:21.388Z,3.10
2023-03-31T12:16:58.444Z,2.58
2023-03-31T12:19:28.832Z,3.13
2023-03-31T12:22:20.585Z,2.67
2023-03-31T12:24:48.478Z,2.80
2023-03-31T12:27:29.549Z,2.58
2023-03-31T12:30:13.220Z,2.83
2023-03-31T12:32:43.742Z,3.15
2023-03-31T12:35:16.469Z,3.03
2023-03-31T12:38:11.682Z,2.85
2023-03-31T12:41:03.771Z,2.35
2023-03-31T12:43:55.125Z,2.55
2023-03-31T12:46:34.928Z,2.38
2023-03-31T12:49:19.220Z,1.80
2023-03-31T12:52:04.387Z,2.17
2023-03-31T12:54:44.525Z,3.83
2023-03-31T12:59:41.489Z,2.53
2023-03-31T13:02:17.434Z,2.20
2023-03-31T13:04:44.922Z,2.40
2023-03-31T13:07:29.128Z,2.63
2023-03-31T13:09:58.578Z,1.80
2023-03-31T13:12:28.252Z,2.03
2023-03-31T13:15:01.521Z,2.63
2023-03-31T13:17:30.059Z,2.35
2023-03-31T13:20:16.050Z,1.83
2023-03-31T13:22:48.493Z,2.33
2023-03-31T13:25:31.358Z,2.83
2023-03-31T13:28:09.255Z,2.42
2023-03-31T13:30:36.844Z,2.15
2023-03-31T13:33:26.965Z,2.60
2023-03-31T13:38:42.159Z,2.38
2023-03-31T13:41:19.123Z,3.00
2023-03-31T13:43:55.062Z,2.50
2023-03-31T13:46:30.622Z,2.28
2023-03-31T13:49:12.051Z,2.03
2023-03-31T13:51:49.073Z,2.28
2023-03-31T13:54:36.353Z,2.28
2023-03-31T13:57:29.500Z,2.25
2023-03-31T14:00:14.343Z,2.35
2023-03-31T14:03:07.755Z,1.77
2023-03-31T14:05:53.880Z,1.30
2023-03-31T14:08:24.135Z,1.50
2023-03-31T14:13:19.767Z,2.17
2023-03-31T14:15:58.612Z,1.17
2023-03-31T14:18:29.702Z,1.58
2023-03-31T14:21:06.451Z,1.77
2023-03-31T14:24:05.546Z,1.48
2023-03-31T14:26:56.502Z,2.17
2023-03-31T14:29:53.138Z,1.92
2023-03-31T14:32:29.702Z,1.67
2023-03-31T14:35:08.435Z,1.88
2023-03-31T14:37:35.848Z,1.20
2023-03-31T14:40:04.812Z,1.52
2023-03-31T14:42:39.556Z,2.00
2023-03-31T14:45:17.047Z,1.73
2023-03-31T14:48:04.674Z,1.98
2023-03-31T14:50:34.910Z,2.08
2023-03-31T14:55:44.187Z,1.17
2023-03-31T14:58:26.140Z,1.50
2023-03-31T15:00:54.159Z,1.88
2023-03-31T15:03:21.601Z,1.70
2023-03-31T15:05:50.278Z,1.92
2023-03-31T15:08:20.766Z,1.98
2023-03-31T15:11:02.434Z,2.50
2023-03-31T15:14:03.373Z,1.50
2023-03-31T15:16:44.465Z,1.15
2023-03-31T15:19:21.400Z,1.27
2023-03-31T15:22:04.670Z,1.75
2023-03-31T15:24:32.046Z,2.10
2023-03-31T15:27:10.026Z,1.23
2023-03-31T15:30:07.061Z,1.33
2023-03-31T15:32:39.346Z,1.67
2023-03-31T15:35:21.140Z,1.92
2023-03-31T15:37:58.299Z,1.77
2023-03-31T15:40:28.409Z,1.70
2023-03-31T15:43:24.572Z,1.48
2023-03-31T15:45:54.398Z,1.60
2023-03-31T15:48:36.469Z,1.75
2023-03-31T15:51:17.907Z,1.40
2023-03-31T15:53:47.228Z,1.88
2023-03-31T15:56:32.332Z,1.97
2023-03-31T15:59:07.007Z,1.67
2023-03-31T16:01:45.835Z,1.40
2023-03-31T16:04:15.203Z,1.80
2023-03-31T16:06:55.517Z,1.60
2023-03-31T16:09:26.367Z,1.73
2023-03-31T16:11:58.527Z,1.60
2023-03-31T16:14:38.678Z,1.27
2023-03-31T16:19:51.189Z,1.52
2023-03-31T16:22:21.629Z,1.95
2023-03-31T16:24:49.237Z,2.00
2023-03-31T16:27:16.490Z,1.67
2023-03-31T16:29:43.753Z,1.70
2023-03-31T16:32:15.452Z,1.90
2023-03-31T16:34:56.800Z,1.80
2023-03-31T16:37:24.598Z,1.52
2023-03-31T16:39:51.896Z,1.55
2023-03-31T16:42:19.806Z,1.88
2023-03-31T16:44:52.894Z,1.58
2023-03-31T16:47:35.205Z,2.17
2023-03-31T16:50:07.332Z,2.38
2023-03-31T16:52:36.042Z,1.77
2023-03-31T16:55:03.374Z,2.05
2023-03-31T16:57:30.754Z,2.17
2023-03-31T16:59:59.037Z,2.28
2023-03-31T17:02:26.754Z,1.75
2023-03-31T17:04:56.566Z,1.75
2023-03-31T17:07:27.039Z,2.33
2023-03-31T17:09:54.261Z,2.38
2023-03-31T17:12:21.574Z,2.10
2023-03-31T17:14:49.057Z,2.92
2023-03-31T17:17:18.013Z,2.30
2023-03-31T17:19:45.488Z,2.72
2023-03-31T17:22:13.134Z,2.60
2023-03-31T17:24:40.803Z,2.00
2023-03-31T17:27:08.116Z,2.20
2023-03-31T17:29:35.477Z,2.58
2023-03-31T17:32:02.956Z,2.50
2023-03-31T17:34:31.775Z,2.35
2023-03-31T17:36:59.801Z,2.75
2023-03-31T17:39:27.701Z,3.53
2023-03-31T17:41:55.051Z,6.90
2023-03-31T17:44:22.626Z,5.82
2023-03-31T17:46:50.004Z,3.72
2023-03-31T17:49:17.643Z,3.50
2023-03-31T17:51:49.761Z,2.47
2023-03-31T17:54:17.053Z,3.15
2023-03-31T17:56:45.449Z,2.17
2023-03-31T17:59:12.765Z,2.55
2023-03-31T18:01:40.167Z,2.83
2023-03-31T18:04:08.246Z,3.47
2023-03-31T18:06:35.511Z,2.72
2023-03-31T18:09:02.913Z,2.92
2023-03-31T18:11:31.085Z,3.53
2023-03-31T18:14:01.978Z,2.05
2023-03-31T18:16:31.054Z,2.75
2023-03-31T18:18:58.306Z,2.85
2023-03-31T18:21:25.813Z,2.45
2023-03-31T18:23:55.088Z,2.50
2023-03-31T18:26:24.100Z,2.97
2023-03-31T18:28:52.610Z,2.55
2023-03-31T18:31:22.378Z,2.35
2023-03-31T18:33:50.002Z,2.55
2023-03-31T18:36:18.978Z,2.67
2023-03-31T18:38:47.956Z,3.58
2023-03-31T18:41:16.110Z,3.63
2023-03-31T18:43:43.512Z,2.45
2023-03-31T18:46:11.463Z,2.95
2023-03-31T18:48:39.230Z,2.80
2023-03-31T18:51:06.890Z,3.28
2023-03-31T18:53:34.192Z,2.28
2023-03-31T18:56:01.660Z,2.72
2023-03-31T18:58:30.167Z,2.70
2023-03-31T19:00:58.216Z,2.88
2023-03-31T19:03:29.191Z,3.78
2023-03-31T19:06:05.237Z,4.20
2023-03-31T19:08:32.773Z,3.60
2023-03-31T19:11:18.196Z,5.28
2023-03-31T19:13:45.694Z,5.05
2023-03-31T19:16:13.478Z,5.82
2023-03-31T19:18:41.121Z,5.53
2023-03-31T19:21:08.423Z,4.18
2023-03-31T19:23:35.731Z,4.00
2023-03-31T19:26:03.244Z,2.97
2023-03-31T19:28:30.654Z,3.80
2023-03-31T19:30:58.594Z,4.35
2023-03-31T19:33:26.728Z,3.50
2023-03-31T19:35:54.227Z,3.03
2023-03-31T19:38:22.003Z,3.63
2023-03-31T19:40:49.608Z,3.45
2023-03-31T19:43:21.129Z,4.07
2023-03-31T19:45:48.924Z,3.13
2023-03-31T19:48:16.690Z,3.58
2023-03-31T19:50:51.230Z,3.08
2023-03-31T19:53:19.536Z,3.70
2023-03-31T19:56:03.642Z,3.08
2023-03-31T19:58:33.154Z,2.85
2023-03-31T20:01:00.396Z,3.57
2023-03-31T20:03:28.209Z,3.25
2023-03-31T20:06:07.258Z,3.03
2023-03-31T20:08:39.444Z,3.25
2023-03-31T20:11:09.783Z,2.55
2023-03-31T20:13:38.297Z,2.97
2023-03-31T20:16:10.765Z,2.58
2023-03-31T20:18:38.680Z,3.25
2023-03-31T20:21:11.536Z,2.72
2023-03-31T20:23:39.977Z,2.58
2023-03-31T20:26:09.031Z,3.17
2023-03-31T20:28:37.862Z,3.15
2023-03-31T20:31:13.294Z,2.50
2023-03-31T20:33:42.048Z,3.45
2023-03-31T20:36:12.085Z,2.63
2023-03-31T20:38:41.309Z,2.97
2023-03-31T20:41:09.582Z,2.83
2023-03-31T20:43:37.275Z,2.03
2023-03-31T20:46:06.533Z,3.92
2023-03-31T20:48:46.574Z,2.93
2023-03-31T20:51:16.425Z,3.13
2023-03-31T20:53:45.659Z,2.17
2023-03-31T20:56:15.201Z,3.23
2023-03-31T20:58:44.092Z,2.45
2023-03-31T21:01:13.081Z,2.38
2023-03-31T21:03:41.270Z,2.70
2023-03-31T21:06:11.963Z,2.78
2023-03-31T21:08:40.769Z,2.63
2023-03-31T21:11:08.596Z,2.72
2023-03-31T21:13:36.082Z,3.28
2023-03-31T21:16:04.592Z,2.63
2023-03-31T21:18:33.419Z,3.22
2023-03-31T21:21:03.275Z,2.90
2023-03-31T21:23:30.920Z,2.72
2023-03-31T21:26:00.604Z,2.28
2023-03-31T21:28:30.281Z,3.35
2023-03-31T21:31:12.545Z,3.45
2023-03-31T21:33:41.646Z,3.25
2023-03-31T21:36:14.756Z,2.60
2023-03-31T21:38:42.556Z,3.13
2023-03-31T21:41:12.561Z,2.75
2023-03-31T21:43:40.285Z,2.70
2023-03-31T21:46:08.002Z,3.47
2023-03-31T21:48:35.584Z,3.85
2023-03-31T21:51:03.596Z,3.25
2023-03-31T21:53:31.502Z,2.92
2023-03-31T21:55:59.276Z,2.90
2023-03-31T21:58:29.128Z,3.28
2023-03-31T22:00:58.011Z,2.47
2023-03-31T22:03:28.663Z,3.00
2023-03-31T22:05:57.453Z,2.92
2023-03-31T22:08:26.946Z,3.28
2023-03-31T22:10:55.567Z,2.60
2023-03-31T22:13:24.156Z,2.80
2023-03-31T22:15:51.517Z,3.35
2023-03-31T22:18:19.468Z,2.33
2023-03-31T22:20:46.890Z,2.78
2023-03-31T22:23:15.027Z,2.47
2023-03-31T22:25:42.584Z,2.95
2023-03-31T22:28:10.374Z,3.47
2023-03-31T22:30:37.813Z,2.25
2023-03-31T22:33:05.588Z,2.90
2023-03-31T22:35:33.188Z,2.65
2023-03-31T22:38:01.540Z,2.78
2023-03-31T22:40:30.134Z,2.60
2023-03-31T22:42:58.424Z,2.88
2023-03-31T22:45:25.778Z,2.72
2023-03-31T22:47:53.009Z,2.25
2023-03-31T22:50:20.420Z,2.80
2023-03-31T22:52:47.593Z,2.50
2023-03-31T22:55:14.916Z,2.55
2023-03-31T22:57:42.617Z,2.90
2023-03-31T23:00:10.669Z,2.65
2023-03-31T23:02:38.011Z,2.83
2023-03-31T23:05:06.265Z,2.70
2023-03-31T23:07:33.451Z,2.70
2023-03-31T23:10:00.701Z,3.55
2023-03-31T23:12:28.520Z,2.38
2023-03-31T23:14:56.111Z,2.75
2023-03-31T23:17:23.556Z,2.92
2023-03-31T23:19:51.344Z,3.72
2023-03-31T23:22:19.052Z,3.10
2023-03-31T23:24:48.759Z,2.10
2023-03-31T23:27:16.113Z,2.55
2023-03-31T23:29:43.985Z,2.67
2023-03-31T23:32:11.623Z,2.70
2023-03-31T23:34:42.248Z,3.03
2023-03-31T23:37:10.722Z,2.90
2023-03-31T23:39:38.879Z,2.40
2023-03-31T23:42:07.351Z,2.92
2023-03-31T23:44:37.196Z,2.28
2023-03-31T23:47:05.567Z,2.15
2023-03-31T23:49:33.408Z,2.10
2023-03-31T23:52:01.308Z,2.53
2023-03-31T23:54:28.956Z,2.55
2023-03-31T23:56:56.354Z,2.28
2023-03-31T23:59:23.755Z,2.42
